Alexander von Humboldt II — DDKK2 — position and weather

sailwx.info

Track history (hours):
 
Tides and Currents Weather Stations Pressure Air Temp Water Temp Dewpoint Dewpoint Depression Visibility Wind Speed Wind Dir Waves Ship Positions

Alexander von Humboldt II

Ship's website: https://www.alex-2.de/en/

Last reported at 2018-Jun-20 17:22 UTC. Time now 2018-Jun-20 20:21 UTC.
Position N 54°52' E 010°07'.

Length 65 m; draft 4.7 m.

Type: Sailing vessel. MMSI: 218768000.

Date/timePositionNaut miles runAvg speedWind from/ knotsBaromVisibWave heightAir tempDewpointWater temp
2018-Jun-20 17:22N 54°52' E 010°07'3 6.7
2018-Jun-20 16:58N 54°51' E 010°11'5 7.3
2018-Jun-20 16:21N 54°49' E 010°18'1 3.0
2018-Jun-20 16:01N 54°48' E 010°19'1 2.1
2018-Jun-20 15:31N 54°47' E 010°19'2 3.0
2018-Jun-20 15:01N 54°45' E 010°20'1 1.8
2018-Jun-20 14:20N 54°46' E 010°18'2 5.8
2018-Jun-20 14:01N 54°47' E 010°16'12 2.0
2018-Jun-20 08:11N 54°57' E 010°05'1 5.0
2018-Jun-20 07:54N 54°56' E 010°06'2 4.2
2018-Jun-20 07:31N 54°54' E 010°06'3 3.9
2018-Jun-20 06:50N 54°51' E 010°07'3 4.5
2018-Jun-20 06:12N 54°49' E 010°08'1 3.8
2018-Jun-20 05:52N 54°48' E 010°10'1 3.2
2018-Jun-20 05:29N 54°47' E 010°11'2 3.5
2018-Jun-20 05:01N 54°46' E 010°13'2 3.9
2018-Jun-20 04:29N 54°45' E 010°16'2 3.9
2018-Jun-20 03:59N 54°43' E 010°17'2 4.2
2018-Jun-20 03:30N 54°41' E 010°18'3 5.5
2018-Jun-20 03:00N 54°39' E 010°22'3 5.6
2018-Jun-20 02:31N 54°38' E 010°27'4 7.9
2018-Jun-20 02:00N 54°37' E 010°33'4 7.6
2018-Jun-20 01:31N 54°35' E 010°39'4 7.1
2018-Jun-20 01:00N 54°35' E 010°45'3 6.6
2018-Jun-20 00:31N 54°35' E 010°51'3 6.3
2018-Jun-20 00:01N 54°36' E 010°56'3 5.8
2018-Jun-19 23:31N 54°36' E 011°01'3 5.4
2018-Jun-19 23:00N 54°37' E 011°06'3 5.9
2018-Jun-19 22:30N 54°37' E 011°11'3 6.4
2018-Jun-19 22:00N 54°36' E 011°16'3 5.7
2018-Jun-19 21:31N 54°34' E 011°20'3 5.3
2018-Jun-19 21:01N 54°33' E 011°24'3 5.8
2018-Jun-19 20:30N 54°32' E 011°29'3 6.0
2018-Jun-19 20:01N 54°30' E 011°33'3 5.9
2018-Jun-19 19:31N 54°29' E 011°38'3 5.2
2018-Jun-19 19:00N 54°28' E 011°42'2 4.6
2018-Jun-19 18:30N 54°26' E 011°45'2 2.9
2018-Jun-19 17:45N 54°26' E 011°41'2 5.9
2018-Jun-19 17:24N 54°27' E 011°38'3 7.1
2018-Jun-19 16:58N 54°29' E 011°33'3 7.0
2018-Jun-19 16:30N 54°30' E 011°28'3 7.0
2018-Jun-19 16:00N 54°31' E 011°22'4 7.6
2018-Jun-19 15:31N 54°33' E 011°16'4 7.8
2018-Jun-19 15:01N 54°35' E 011°10'3 6.5
2018-Jun-19 14:31N 54°36' E 011°05'2 4.7
2018-Jun-19 14:01N 54°38' E 011°03'3 5.2
2018-Jun-19 13:31N 54°41' E 011°03'1 2.4
2018-Jun-19 13:01N 54°40' E 011°01'2 4.4
2018-Jun-19 12:30N 54°38' E 011°00'2 4.0
2018-Jun-19 12:01N 54°36' E 010°59'2 3.5
2018-Jun-19 11:31N 54°34' E 010°57'2 3.2
2018-Jun-19 11:00N 54°33' E 010°56'1 2.2
2018-Jun-19 10:31N 54°33' E 010°54'2 4.4
2018-Jun-19 10:00N 54°35' E 010°52'3 5.1
2018-Jun-19 09:31N 54°37' E 010°49'2 4.2
2018-Jun-19 09:00N 54°39' E 010°47'2 3.6
2018-Jun-19 08:31N 54°41' E 010°46'2 4.6
2018-Jun-19 08:01N 54°43' E 010°44'2 3.0
2018-Jun-19 07:31N 54°41' E 010°44'2 3.2
2018-Jun-19 07:01N 54°40' E 010°43'2 3.2
2018-Jun-19 06:31N 54°38' E 010°43'1 3.0
2018-Jun-19 06:01N 54°37' E 010°42'2 3.1
2018-Jun-19 05:31N 54°35' E 010°42'1 2.9
2018-Jun-19 05:01N 54°35' E 010°44'3 5.2
2018-Jun-19 04:31N 54°35' E 010°49'3 6.3
2018-Jun-19 04:01N 54°36' E 010°54'3 6.2
2018-Jun-19 03:31N 54°36' E 010°59'3 6.3
2018-Jun-19 03:01N 54°36' E 011°05'3 6.4
2018-Jun-19 02:30N 54°36' E 011°10'3 6.2
2018-Jun-19 02:01N 54°36' E 011°15'2 3.3
2018-Jun-19 01:30N 54°35' E 011°18'1 2.5
2018-Jun-19 01:01N 54°34' E 011°20'2 3.6
2018-Jun-19 00:30N 54°33' E 011°22'2 3.6
2018-Jun-19 00:00N 54°32' E 011°25'1 2.9
2018-Jun-18 23:31N 54°32' E 011°27'2 3.1
2018-Jun-18 23:01N 54°31' E 011°30'2 3.2
2018-Jun-18 22:31N 54°31' E 011°32'2 4.6
2018-Jun-18 22:01N 54°28' E 011°32'3 5.8
2018-Jun-18 21:30N 54°26' E 011°29'3 6.6
2018-Jun-18 21:01N 54°23' E 011°27'3 6.8
2018-Jun-18 20:30N 54°20' E 011°25'3 6.7
2018-Jun-18 20:00N 54°16' E 011°23'6 6.3
2018-Jun-18 19:06N 54°11' E 011°21'1 6.3
2018-Jun-18 18:59N 54°11' E 011°20'5 6.1
2018-Jun-18 18:14N 54°08' E 011°13'16 0.3
2018-Jun-16 16:31N 53°57' E 010°53'0 7.0
2018-Jun-16 16:29N 53°58' E 010°53'3 6.0
2018-Jun-16 15:59N 53°60' E 010°56'3 6.5
2018-Jun-16 15:30N 54°02' E 011°01'1 0.9
2018-Jun-16 14:21N 54°02' E 011°02'2 2.4
2018-Jun-16 13:31N 54°01' E 010°60'6 0.5
2018-Jun-16 01:10N 53°57' E 010°52'0 0.0
2018-Jun-16 01:00N 53°57' E 010°52'20 1.4
2018-Jun-15 10:04N 54°15' E 011°08'0 0.5
2018-Jun-15 10:01N 54°15' E 011°08'0 0.8
2018-Jun-15 09:30N 54°15' E 011°09'5 1.5
2018-Jun-15 06:22N 54°19' E 011°11'1 3.4
2018-Jun-15 05:57N 54°21' E 011°11'2 3.4
2018-Jun-15 05:30N 54°22' E 011°12'1 2.8
2018-Jun-15 05:01N 54°24' E 011°12'1 1.0
2018-Jun-15 04:28N 54°24' E 011°12'0 0.1
2018-Jun-15 03:58N 54°24' E 011°13'0 0.1
2018-Jun-15 03:25N 54°24' E 011°13'0 0.0
2018-Jun-15 02:58N 54°24' E 011°13'0 0.0
2018-Jun-15 02:28N 54°24' E 011°13'0 0.0
2018-Jun-15 01:55N 54°24' E 011°13'0 0.0
2018-Jun-15 01:25N 54°24' E 011°13'0 0.0
2018-Jun-15 00:58N 54°24' E 011°13'0 0.0
2018-Jun-15 00:13N 54°24' E 011°13'0 0.0
2018-Jun-14 23:55N 54°24' E 011°13'0 0.0
2018-Jun-14 23:28N 54°24' E 011°13'0 0.0
2018-Jun-14 22:58N 54°24' E 011°13'0 0.0
2018-Jun-14 22:25N 54°24' E 011°13'0 0.0
2018-Jun-14 21:58N 54°24' E 011°13'0 0.0
2018-Jun-14 21:28N 54°24' E 011°13'0 0.0
2018-Jun-14 20:58N 54°24' E 011°13'0 0.0
2018-Jun-14 20:28N 54°24' E 011°13'0 0.0
2018-Jun-14 19:58N 54°24' E 011°13'0 0.0
2018-Jun-14 19:28N 54°24' E 011°13'0 0.0
2018-Jun-14 18:58N 54°24' E 011°13'0 0.0
2018-Jun-14 18:25N 54°24' E 011°13'0 0.2
2018-Jun-14 17:58N 54°24' E 011°13'0 0.0
2018-Jun-14 17:28N 54°24' E 011°12'0 0.0
2018-Jun-14 16:58N 54°24' E 011°12'0 0.0
2018-Jun-14 16:28N 54°24' E 011°12'0 0.0
2018-Jun-14 15:55N 54°24' E 011°12'0 0.0
2018-Jun-14 14:46N 54°24' E 011°12'0 0.0
2018-Jun-14 13:10N 54°24' E 011°12'0 0.0
2018-Jun-14 12:04N 54°24' E 011°12'0 0.0
2018-Jun-14 11:52N 54°24' E 011°12'0 0.0
2018-Jun-14 11:22N 54°24' E 011°12'0 0.0
2018-Jun-14 08:55N 54°24' E 011°12'0 0.0
2018-Jun-14 08:16N 54°24' E 011°13'0 0.0
2018-Jun-14 07:58N 54°24' E 011°13'0 0.0
2018-Jun-14 07:28N 54°24' E 011°13'0 0.0
2018-Jun-14 06:58N 54°24' E 011°13'0 0.0
2018-Jun-14 06:19N 54°24' E 011°13'0 0.0
2018-Jun-14 05:58N 54°24' E 011°13'0 0.0
2018-Jun-14 05:28N 54°24' E 011°13'0 0.0
2018-Jun-14 04:58N 54°24' E 011°13'0 0.0
2018-Jun-14 04:25N 54°24' E 011°13'0 0.0
2018-Jun-14 03:58N 54°24' E 011°13'0 0.0
2018-Jun-14 03:28N 54°24' E 011°13'0 0.0
2018-Jun-14 02:58N 54°24' E 011°13'0 0.0
2018-Jun-14 02:13N 54°24' E 011°13'0 0.0
2018-Jun-14 01:52N 54°24' E 011°13'0 0.0
2018-Jun-14 01:25N 54°24' E 011°13'0 0.0
2018-Jun-14 00:58N 54°24' E 011°13'0 0.0
2018-Jun-14 00:25N 54°24' E 011°13'0 0.0
2018-Jun-13 23:55N 54°24' E 011°13'0 0.0
2018-Jun-13 23:28N 54°24' E 011°13'0 0.0
2018-Jun-13 22:58N 54°24' E 011°13'0 0.0
2018-Jun-13 22:28N 54°24' E 011°13'0 0.0
2018-Jun-13 21:58N 54°24' E 011°13'0 0.0
2018-Jun-13 21:28N 54°24' E 011°13'0 0.0
2018-Jun-13 20:58N 54°24' E 011°13'0 0.0
2018-Jun-13 20:28N 54°24' E 011°13'0 0.0
2018-Jun-13 19:58N 54°24' E 011°13'0 0.0
2018-Jun-13 19:28N 54°24' E 011°13'0 0.0
2018-Jun-13 18:58N 54°24' E 011°13'0 0.0
2018-Jun-13 18:28N 54°24' E 011°13'0 0.0
2018-Jun-13 18:00N 54°24' E 011°13'2 3.4
2018-Jun-13 17:30N 54°24' E 011°15'2 3.3
2018-Jun-13 17:00N 54°23' E 011°18'2 3.8
2018-Jun-13 16:30N 54°21' E 011°17'12 7.5
2018-Jun-13 14:52N 54°10' E 011°10'1 2.4
2018-Jun-13 14:30N 54°11' E 011°10'7 8.3
2018-Jun-13 13:42N 54°16' E 011°16'2 9.5
2018-Jun-13 13:30N 54°18' E 011°17'4 8.9
2018-Jun-13 13:00N 54°22' E 011°20'5 9.1
2018-Jun-13 12:30N 54°27' E 011°21'4 8.8
2018-Jun-13 12:00N 54°31' E 011°21'4 7.1
2018-Jun-13 11:30N 54°33' E 011°16'3 7.0
2018-Jun-13 11:00N 54°35' E 011°10'4 8.2
2018-Jun-13 10:31N 54°38' E 011°05'4 8.2
2018-Jun-13 10:00N 54°41' E 011°00'3 6.4
2018-Jun-13 09:30N 54°43' E 010°57'3 6.0
2018-Jun-13 09:01N 54°45' E 010°53'4 8.4
2018-Jun-13 08:30N 54°49' E 010°51'5 9.1
2018-Jun-13 08:00N 54°54' E 010°52'3 6.8
2018-Jun-13 07:30N 54°57' E 010°53'3 6.0
2018-Jun-13 07:00N 54°60' E 010°55'3 5.2
2018-Jun-13 06:30N 55°02' E 010°57'2 3.9
2018-Jun-13 06:01N 55°04' E 010°57'2 4.3
2018-Jun-13 05:30N 55°06' E 010°58'3 5.3
2018-Jun-13 05:00N 55°09' E 010°59'5 0.2
2018-Jun-11 21:06N 55°14' E 011°02'2 5.8
2018-Jun-11 20:50N 55°12' E 011°01'2 5.6
2018-Jun-11 20:29N 55°10' E 010°60'4 8.1
2018-Jun-11 20:01N 55°07' E 010°58'4 7.8
2018-Jun-11 19:30N 55°03' E 010°57'4 7.3
2018-Jun-11 19:00N 54°59' E 010°55'3 6.8
2018-Jun-11 18:30N 54°56' E 010°52'3 6.9
2018-Jun-11 18:01N 54°53' E 010°50'3 6.9
2018-Jun-11 17:30N 54°50' E 010°49'4 7.0
2018-Jun-11 17:00N 54°46' E 010°47'4 8.1
2018-Jun-11 16:30N 54°43' E 010°45'4 9.0
2018-Jun-11 16:00N 54°41' E 010°38'5 9.3
2018-Jun-11 15:30N 54°39' E 010°30'5 7.9
2018-Jun-11 14:55N 54°37' E 010°23'4 7.4
2018-Jun-11 14:22N 54°35' E 010°16'16 6.2
2018-Jun-11 11:48N 54°28' E 009°52'  
Track history (hours):
 
Tides and Currents Weather Stations Pressure Air Temp Water Temp Dewpoint Dewpoint Depression Visibility Wind Speed Wind Dir Waves Ship Positions

Alexander von Humboldt II

Ship's website: https://www.alex-2.de/en/

Last reported at 2018-Jun-20 17:22 UTC. Time now 2018-Jun-20 20:21 UTC.
Position N 54°52' E 010°07'.

Length 65 m; draft 4.7 m.

Type: Sailing vessel. MMSI: 218768000.

Date/timePositionNaut miles runAvg speedWind from/ knotsBaromVisibWave heightAir tempDewpointWater temp
2018-Jun-20 17:22N 54°52' E 010°07'3 6.7
2018-Jun-20 16:58N 54°51' E 010°11'5 7.3
2018-Jun-20 16:21N 54°49' E 010°18'1 3.0
2018-Jun-20 16:01N 54°48' E 010°19'1 2.1
2018-Jun-20 15:31N 54°47' E 010°19'2 3.0
2018-Jun-20 15:01N 54°45' E 010°20'1 1.8
2018-Jun-20 14:20N 54°46' E 010°18'2 5.8
2018-Jun-20 14:01N 54°47' E 010°16'12 2.0
2018-Jun-20 08:11N 54°57' E 010°05'1 5.0
2018-Jun-20 07:54N 54°56' E 010°06'2 4.2
2018-Jun-20 07:31N 54°54' E 010°06'3 3.9
2018-Jun-20 06:50N 54°51' E 010°07'3 4.5
2018-Jun-20 06:12N 54°49' E 010°08'1 3.8
2018-Jun-20 05:52N 54°48' E 010°10'1 3.2
2018-Jun-20 05:29N 54°47' E 010°11'2 3.5
2018-Jun-20 05:01N 54°46' E 010°13'2 3.9
2018-Jun-20 04:29N 54°45' E 010°16'2 3.9
2018-Jun-20 03:59N 54°43' E 010°17'2 4.2
2018-Jun-20 03:30N 54°41' E 010°18'3 5.5
2018-Jun-20 03:00N 54°39' E 010°22'3 5.6
2018-Jun-20 02:31N 54°38' E 010°27'4 7.9
2018-Jun-20 02:00N 54°37' E 010°33'4 7.6
2018-Jun-20 01:31N 54°35' E 010°39'4 7.1
2018-Jun-20 01:00N 54°35' E 010°45'3 6.6
2018-Jun-20 00:31N 54°35' E 010°51'3 6.3
2018-Jun-20 00:01N 54°36' E 010°56'3 5.8
2018-Jun-19 23:31N 54°36' E 011°01'3 5.4
2018-Jun-19 23:00N 54°37' E 011°06'3 5.9
2018-Jun-19 22:30N 54°37' E 011°11'3 6.4
2018-Jun-19 22:00N 54°36' E 011°16'3 5.7
2018-Jun-19 21:31N 54°34' E 011°20'3 5.3
2018-Jun-19 21:01N 54°33' E 011°24'3 5.8
2018-Jun-19 20:30N 54°32' E 011°29'3 6.0
2018-Jun-19 20:01N 54°30' E 011°33'3 5.9
2018-Jun-19 19:31N 54°29' E 011°38'3 5.2
2018-Jun-19 19:00N 54°28' E 011°42'2 4.6
2018-Jun-19 18:30N 54°26' E 011°45'2 2.9
2018-Jun-19 17:45N 54°26' E 011°41'2 5.9
2018-Jun-19 17:24N 54°27' E 011°38'3 7.1
2018-Jun-19 16:58N 54°29' E 011°33'3 7.0
2018-Jun-19 16:30N 54°30' E 011°28'3 7.0
2018-Jun-19 16:00N 54°31' E 011°22'4 7.6
2018-Jun-19 15:31N 54°33' E 011°16'4 7.8
2018-Jun-19 15:01N 54°35' E 011°10'3 6.5
2018-Jun-19 14:31N 54°36' E 011°05'2 4.7
2018-Jun-19 14:01N 54°38' E 011°03'3 5.2
2018-Jun-19 13:31N 54°41' E 011°03'1 2.4
2018-Jun-19 13:01N 54°40' E 011°01'2 4.4
2018-Jun-19 12:30N 54°38' E 011°00'2 4.0
2018-Jun-19 12:01N 54°36' E 010°59'2 3.5
2018-Jun-19 11:31N 54°34' E 010°57'2 3.2
2018-Jun-19 11:00N 54°33' E 010°56'1 2.2
2018-Jun-19 10:31N 54°33' E 010°54'2 4.4
2018-Jun-19 10:00N 54°35' E 010°52'3 5.1
2018-Jun-19 09:31N 54°37' E 010°49'2 4.2
2018-Jun-19 09:00N 54°39' E 010°47'2 3.6
2018-Jun-19 08:31N 54°41' E 010°46'2 4.6
2018-Jun-19 08:01N 54°43' E 010°44'2 3.0
2018-Jun-19 07:31N 54°41' E 010°44'2 3.2
2018-Jun-19 07:01N 54°40' E 010°43'2 3.2
2018-Jun-19 06:31N 54°38' E 010°43'1 3.0
2018-Jun-19 06:01N 54°37' E 010°42'2 3.1
2018-Jun-19 05:31N 54°35' E 010°42'1 2.9
2018-Jun-19 05:01N 54°35' E 010°44'3 5.2
2018-Jun-19 04:31N 54°35' E 010°49'3 6.3
2018-Jun-19 04:01N 54°36' E 010°54'3 6.2
2018-Jun-19 03:31N 54°36' E 010°59'3 6.3
2018-Jun-19 03:01N 54°36' E 011°05'3 6.4
2018-Jun-19 02:30N 54°36' E 011°10'3 6.2
2018-Jun-19 02:01N 54°36' E 011°15'2 3.3
2018-Jun-19 01:30N 54°35' E 011°18'1 2.5
2018-Jun-19 01:01N 54°34' E 011°20'2 3.6
2018-Jun-19 00:30N 54°33' E 011°22'2 3.6
2018-Jun-19 00:00N 54°32' E 011°25'1 2.9
2018-Jun-18 23:31N 54°32' E 011°27'2 3.1
2018-Jun-18 23:01N 54°31' E 011°30'2 3.2
2018-Jun-18 22:31N 54°31' E 011°32'2 4.6
2018-Jun-18 22:01N 54°28' E 011°32'3 5.8
2018-Jun-18 21:30N 54°26' E 011°29'3 6.6
2018-Jun-18 21:01N 54°23' E 011°27'3 6.8
2018-Jun-18 20:30N 54°20' E 011°25'3 6.7
2018-Jun-18 20:00N 54°16' E 011°23'6 6.3
2018-Jun-18 19:06N 54°11' E 011°21'1 6.3
2018-Jun-18 18:59N 54°11' E 011°20'5 6.1
2018-Jun-18 18:14N 54°08' E 011°13'16 0.3
2018-Jun-16 16:31N 53°57' E 010°53'0 7.0
2018-Jun-16 16:29N 53°58' E 010°53'3 6.0
2018-Jun-16 15:59N 53°60' E 010°56'3 6.5
2018-Jun-16 15:30N 54°02' E 011°01'1 0.9
2018-Jun-16 14:21N 54°02' E 011°02'2 2.4
2018-Jun-16 13:31N 54°01' E 010°60'6 0.5
2018-Jun-16 01:10N 53°57' E 010°52'0 0.0
2018-Jun-16 01:00N 53°57' E 010°52'20 1.4
2018-Jun-15 10:04N 54°15' E 011°08'0 0.5
2018-Jun-15 10:01N 54°15' E 011°08'0 0.8
2018-Jun-15 09:30N 54°15' E 011°09'5 1.5
2018-Jun-15 06:22N 54°19' E 011°11'1 3.4
2018-Jun-15 05:57N 54°21' E 011°11'2 3.4
2018-Jun-15 05:30N 54°22' E 011°12'1 2.8
2018-Jun-15 05:01N 54°24' E 011°12'1 1.0
2018-Jun-15 04:28N 54°24' E 011°12'0 0.1
2018-Jun-15 03:58N 54°24' E 011°13'0 0.1
2018-Jun-15 03:25N 54°24' E 011°13'0 0.0
2018-Jun-15 02:58N 54°24' E 011°13'0 0.0
2018-Jun-15 02:28N 54°24' E 011°13'0 0.0
2018-Jun-15 01:55N 54°24' E 011°13'0 0.0
2018-Jun-15 01:25N 54°24' E 011°13'0 0.0
2018-Jun-15 00:58N 54°24' E 011°13'0 0.0
2018-Jun-15 00:13N 54°24' E 011°13'0 0.0
2018-Jun-14 23:55N 54°24' E 011°13'0 0.0
2018-Jun-14 23:28N 54°24' E 011°13'0 0.0
2018-Jun-14 22:58N 54°24' E 011°13'0 0.0
2018-Jun-14 22:25N 54°24' E 011°13'0 0.0
2018-Jun-14 21:58N 54°24' E 011°13'0 0.0
2018-Jun-14 21:28N 54°24' E 011°13'0 0.0
2018-Jun-14 20:58N 54°24' E 011°13'0 0.0
2018-Jun-14 20:28N 54°24' E 011°13'0 0.0
2018-Jun-14 19:58N 54°24' E 011°13'0 0.0
2018-Jun-14 19:28N 54°24' E 011°13'0 0.0
2018-Jun-14 18:58N 54°24' E 011°13'0 0.0
2018-Jun-14 18:25N 54°24' E 011°13'0 0.2
2018-Jun-14 17:58N 54°24' E 011°13'0 0.0
2018-Jun-14 17:28N 54°24' E 011°12'0 0.0
2018-Jun-14 16:58N 54°24' E 011°12'0 0.0
2018-Jun-14 16:28N 54°24' E 011°12'0 0.0
2018-Jun-14 15:55N 54°24' E 011°12'0 0.0
2018-Jun-14 14:46N 54°24' E 011°12'0 0.0
2018-Jun-14 13:10N 54°24' E 011°12'0 0.0
2018-Jun-14 12:04N 54°24' E 011°12'0 0.0
2018-Jun-14 11:52N 54°24' E 011°12'0 0.0
2018-Jun-14 11:22N 54°24' E 011°12'0 0.0
2018-Jun-14 08:55N 54°24' E 011°12'0 0.0
2018-Jun-14 08:16N 54°24' E 011°13'0 0.0
2018-Jun-14 07:58N 54°24' E 011°13'0 0.0
2018-Jun-14 07:28N 54°24' E 011°13'0 0.0
2018-Jun-14 06:58N 54°24' E 011°13'0 0.0
2018-Jun-14 06:19N 54°24' E 011°13'0 0.0
2018-Jun-14 05:58N 54°24' E 011°13'0 0.0
2018-Jun-14 05:28N 54°24' E 011°13'0 0.0
2018-Jun-14 04:58N 54°24' E 011°13'0 0.0
2018-Jun-14 04:25N 54°24' E 011°13'0 0.0
2018-Jun-14 03:58N 54°24' E 011°13'0 0.0
2018-Jun-14 03:28N 54°24' E 011°13'0 0.0
2018-Jun-14 02:58N 54°24' E 011°13'0 0.0
2018-Jun-14 02:13N 54°24' E 011°13'0 0.0
2018-Jun-14 01:52N 54°24' E 011°13'0 0.0
2018-Jun-14 01:25N 54°24' E 011°13'0 0.0
2018-Jun-14 00:58N 54°24' E 011°13'0 0.0
2018-Jun-14 00:25N 54°24' E 011°13'0 0.0
2018-Jun-13 23:55N 54°24' E 011°13'0 0.0
2018-Jun-13 23:28N 54°24' E 011°13'0 0.0
2018-Jun-13 22:58N 54°24' E 011°13'0 0.0
2018-Jun-13 22:28N 54°24' E 011°13'0 0.0
2018-Jun-13 21:58N 54°24' E 011°13'0 0.0
2018-Jun-13 21:28N 54°24' E 011°13'0 0.0
2018-Jun-13 20:58N 54°24' E 011°13'0 0.0
2018-Jun-13 20:28N 54°24' E 011°13'0 0.0
2018-Jun-13 19:58N 54°24' E 011°13'0 0.0
2018-Jun-13 19:28N 54°24' E 011°13'0 0.0
2018-Jun-13 18:58N 54°24' E 011°13'0 0.0
2018-Jun-13 18:28N 54°24' E 011°13'0 0.0
2018-Jun-13 18:00N 54°24' E 011°13'2 3.4
2018-Jun-13 17:30N 54°24' E 011°15'2 3.3
2018-Jun-13 17:00N 54°23' E 011°18'2 3.8
2018-Jun-13 16:30N 54°21' E 011°17'12 7.5
2018-Jun-13 14:52N 54°10' E 011°10'1 2.4
2018-Jun-13 14:30N 54°11' E 011°10'7 8.3
2018-Jun-13 13:42N 54°16' E 011°16'2 9.5
2018-Jun-13 13:30N 54°18' E 011°17'4 8.9
2018-Jun-13 13:00N 54°22' E 011°20'5 9.1
2018-Jun-13 12:30N 54°27' E 011°21'4 8.8
2018-Jun-13 12:00N 54°31' E 011°21'4 7.1
2018-Jun-13 11:30N 54°33' E 011°16'3 7.0
2018-Jun-13 11:00N 54°35' E 011°10'4 8.2
2018-Jun-13 10:31N 54°38' E 011°05'4 8.2
2018-Jun-13 10:00N 54°41' E 011°00'3 6.4
2018-Jun-13 09:30N 54°43' E 010°57'3 6.0
2018-Jun-13 09:01N 54°45' E 010°53'4 8.4
2018-Jun-13 08:30N 54°49' E 010°51'5 9.1
2018-Jun-13 08:00N 54°54' E 010°52'3 6.8
2018-Jun-13 07:30N 54°57' E 010°53'3 6.0
2018-Jun-13 07:00N 54°60' E 010°55'3 5.2
2018-Jun-13 06:30N 55°02' E 010°57'2 3.9
2018-Jun-13 06:01N 55°04' E 010°57'2 4.3
2018-Jun-13 05:30N 55°06' E 010°58'3 5.3
2018-Jun-13 05:00N 55°09' E 010°59'5 0.2
2018-Jun-11 21:06N 55°14' E 011°02'2 5.8
2018-Jun-11 20:50N 55°12' E 011°01'2 5.6
2018-Jun-11 20:29N 55°10' E 010°60'4 8.1
2018-Jun-11 20:01N 55°07' E 010°58'4 7.8
2018-Jun-11 19:30N 55°03' E 010°57'4 7.3
2018-Jun-11 19:00N 54°59' E 010°55'3 6.8
2018-Jun-11 18:30N 54°56' E 010°52'3 6.9
2018-Jun-11 18:01N 54°53' E 010°50'3 6.9
2018-Jun-11 17:30N 54°50' E 010°49'4 7.0
2018-Jun-11 17:00N 54°46' E 010°47'4 8.1
2018-Jun-11 16:30N 54°43' E 010°45'4 9.0
2018-Jun-11 16:00N 54°41' E 010°38'5 9.3
2018-Jun-11 15:30N 54°39' E 010°30'5 7.9
2018-Jun-11 14:55N 54°37' E 010°23'4 7.4
2018-Jun-11 14:22N 54°35' E 010°16'16 6.2
2018-Jun-11 11:48N 54°28' E 009°52'  

Dump ship's entire track history